createdAt,value
2023-03-31T00:00:17.367Z,33.47
2023-03-31T00:01:17.389Z,33.43
2023-03-31T00:02:17.450Z,33.42
2023-03-31T00:03:17.535Z,33.37
2023-03-31T00:04:17.634Z,33.33
2023-03-31T00:05:17.525Z,33.33
2023-03-31T00:06:17.562Z,33.29
2023-03-31T00:07:17.596Z,33.28
2023-03-31T00:08:17.643Z,33.31
2023-03-31T00:09:17.669Z,33.28
2023-03-31T00:10:18.676Z,33.30
2023-03-31T00:11:17.841Z,33.25
2023-03-31T00:12:17.789Z,33.26
2023-03-31T00:13:17.823Z,33.29
2023-03-31T00:14:17.849Z,33.26
2023-03-31T00:15:17.885Z,33.25
2023-03-31T00:16:17.955Z,33.25
2023-03-31T00:17:17.972Z,33.23
2023-03-31T00:18:18.000Z,33.22
2023-03-31T00:19:18.157Z,33.24
2023-03-31T00:20:18.077Z,33.22
2023-03-31T00:21:18.124Z,33.20
2023-03-31T00:22:18.166Z,33.24
2023-03-31T00:23:18.212Z,33.21
2023-03-31T00:24:18.258Z,33.22
2023-03-31T00:25:18.302Z,33.22
2023-03-31T00:26:18.332Z,33.23
2023-03-31T00:27:18.401Z,33.19
2023-03-31T00:28:18.404Z,33.20
2023-03-31T00:29:18.449Z,33.19
2023-03-31T00:30:18.516Z,33.19
2023-03-31T00:31:18.576Z,33.19
2023-03-31T00:32:18.563Z,33.17
2023-03-31T00:33:18.605Z,33.16
2023-03-31T00:34:18.655Z,33.20
2023-03-31T00:35:18.689Z,33.19
2023-03-31T00:36:18.762Z,33.21
2023-03-31T00:37:18.787Z,33.19
2023-03-31T00:38:18.823Z,33.19
2023-03-31T00:39:18.889Z,33.17
2023-03-31T00:40:18.909Z,33.17
2023-03-31T00:41:18.945Z,33.15
2023-03-31T00:42:19.011Z,33.17
2023-03-31T00:43:19.059Z,33.17
2023-03-31T00:44:19.333Z,33.18
2023-03-31T00:45:19.132Z,33.15
2023-03-31T00:46:19.287Z,33.18
2023-03-31T00:47:19.206Z,33.15
2023-03-31T00:48:19.258Z,33.13
2023-03-31T00:49:19.302Z,33.13
2023-03-31T00:50:19.338Z,33.15
2023-03-31T00:51:19.392Z,33.12
2023-03-31T00:52:19.432Z,33.14
2023-03-31T00:53:19.479Z,33.12
2023-03-31T00:54:19.552Z,33.13
2023-03-31T00:55:19.588Z,33.13
2023-03-31T00:56:19.596Z,33.10
2023-03-31T00:57:19.694Z,33.13
2023-03-31T00:58:19.685Z,33.14
2023-03-31T00:59:19.764Z,33.10
2023-03-31T01:00:19.776Z,33.11
2023-03-31T01:01:19.875Z,33.11
2023-03-31T01:02:19.878Z,33.09
2023-03-31T01:03:19.909Z,33.09
2023-03-31T01:04:19.962Z,33.07
2023-03-31T01:05:20.005Z,33.08
2023-03-31T01:06:20.072Z,33.07
2023-03-31T01:07:20.087Z,33.09
2023-03-31T01:08:20.144Z,33.08
2023-03-31T01:09:20.175Z,33.09
2023-03-31T01:10:20.238Z,33.08
2023-03-31T01:11:20.264Z,33.08
2023-03-31T01:12:20.306Z,33.09
2023-03-31T01:13:20.346Z,33.07
2023-03-31T01:14:20.383Z,33.05
2023-03-31T01:15:20.446Z,33.07
2023-03-31T01:16:20.488Z,33.05
2023-03-31T01:17:20.627Z,33.05
2023-03-31T01:18:20.651Z,33.03
2023-03-31T01:19:20.638Z,33.04
2023-03-31T01:20:20.629Z,33.03
2023-03-31T01:21:20.657Z,33.03
2023-03-31T01:22:20.691Z,33.04
2023-03-31T01:23:20.740Z,33.02
2023-03-31T01:24:20.792Z,33.05
2023-03-31T01:25:20.828Z,33.00
2023-03-31T01:26:20.889Z,33.02
2023-03-31T01:27:20.910Z,33.01
2023-03-31T01:28:20.949Z,33.03
2023-03-31T01:29:20.991Z,33.04
2023-03-31T01:30:21.040Z,33.00
2023-03-31T01:31:21.157Z,33.01
2023-03-31T01:32:21.129Z,33.00
2023-03-31T01:33:21.170Z,33.01
2023-03-31T01:34:21.209Z,33.00
2023-03-31T01:35:21.254Z,33.01
2023-03-31T01:36:21.301Z,32.99
2023-03-31T01:37:21.340Z,32.97
2023-03-31T01:38:21.389Z,32.97
2023-03-31T01:39:21.427Z,32.96
2023-03-31T01:40:22.280Z,32.96
2023-03-31T01:41:21.525Z,32.99
2023-03-31T01:42:21.559Z,32.96
2023-03-31T01:43:21.618Z,32.97
2023-03-31T01:44:21.649Z,32.97
2023-03-31T01:45:21.703Z,32.97
2023-03-31T01:46:21.850Z,32.97
2023-03-31T01:47:21.810Z,32.96
2023-03-31T01:48:21.826Z,32.96
2023-03-31T01:49:21.877Z,32.97
2023-03-31T01:50:21.921Z,32.95
2023-03-31T01:51:21.969Z,32.94
2023-03-31T01:52:22.045Z,32.94
2023-03-31T01:53:22.060Z,32.93
2023-03-31T01:54:22.102Z,32.92
2023-03-31T01:55:22.134Z,32.91
2023-03-31T01:56:22.185Z,32.92
2023-03-31T01:57:22.273Z,32.95
2023-03-31T01:58:22.443Z,32.94
2023-03-31T01:59:22.335Z,32.94
2023-03-31T02:00:22.384Z,32.92
2023-03-31T02:01:22.499Z,32.90
2023-03-31T02:02:22.586Z,32.91
2023-03-31T02:03:22.760Z,32.94
2023-03-31T02:04:22.560Z,32.92
2023-03-31T02:05:22.605Z,32.92
2023-03-31T02:06:22.645Z,32.93
2023-03-31T02:07:22.692Z,32.93
2023-03-31T02:08:22.745Z,32.92
2023-03-31T02:09:22.797Z,32.91
2023-03-31T02:10:22.822Z,32.91
2023-03-31T02:11:22.891Z,32.90
2023-03-31T02:12:22.923Z,32.90
2023-03-31T02:13:22.968Z,32.93
2023-03-31T02:14:22.999Z,32.92
2023-03-31T02:15:23.051Z,32.91
2023-03-31T02:16:23.138Z,32.90
2023-03-31T02:17:23.186Z,32.89
2023-03-31T02:18:23.209Z,32.91
2023-03-31T02:19:23.266Z,32.89
2023-03-31T02:20:23.325Z,32.87
2023-03-31T02:21:23.344Z,32.87
2023-03-31T02:22:23.382Z,32.90
2023-03-31T02:23:23.435Z,32.89
2023-03-31T02:24:23.473Z,32.89
2023-03-31T02:25:23.520Z,32.90
2023-03-31T02:26:23.573Z,32.90
2023-03-31T02:27:23.633Z,32.89
2023-03-31T02:28:23.671Z,32.88
2023-03-31T02:29:23.726Z,32.87
2023-03-31T02:30:23.766Z,32.87
2023-03-31T02:31:23.882Z,32.86
2023-03-31T02:32:23.887Z,32.87
2023-03-31T02:33:23.894Z,32.86
2023-03-31T02:34:23.944Z,32.84
2023-03-31T02:35:24.047Z,32.83
2023-03-31T02:36:24.035Z,32.86
2023-03-31T02:37:24.098Z,32.86
2023-03-31T02:38:24.188Z,32.87
2023-03-31T02:39:24.186Z,32.86
2023-03-31T02:40:24.229Z,32.85
2023-03-31T02:41:24.280Z,32.84
2023-03-31T02:42:24.339Z,32.85
2023-03-31T02:43:24.392Z,32.83
2023-03-31T02:44:24.443Z,32.84
2023-03-31T02:45:24.497Z,32.81
2023-03-31T02:46:24.579Z,32.80
2023-03-31T02:47:24.611Z,32.81
2023-03-31T02:48:24.649Z,32.84
2023-03-31T02:49:24.696Z,32.80
2023-03-31T02:50:24.749Z,32.82
2023-03-31T02:51:24.836Z,32.83
2023-03-31T02:52:24.849Z,32.83
2023-03-31T02:53:24.894Z,32.80
2023-03-31T02:54:24.949Z,32.79
2023-03-31T02:55:24.995Z,32.79
2023-03-31T02:56:25.060Z,32.79
2023-03-31T02:57:25.186Z,32.76
2023-03-31T02:58:25.151Z,32.75
2023-03-31T02:59:25.240Z,32.76
2023-03-31T03:00:25.239Z,32.75
2023-03-31T03:01:25.348Z,32.76
2023-03-31T03:02:25.452Z,32.75
2023-03-31T03:03:25.451Z,32.77
2023-03-31T03:04:25.421Z,32.75
2023-03-31T03:05:25.465Z,32.75
2023-03-31T03:06:25.517Z,32.74
2023-03-31T03:07:25.585Z,32.74
2023-03-31T03:08:25.614Z,32.74
2023-03-31T03:09:25.661Z,32.75
2023-03-31T03:10:25.716Z,32.75
2023-03-31T03:11:25.749Z,32.72
2023-03-31T03:12:25.797Z,32.72
2023-03-31T03:13:25.855Z,32.72
2023-03-31T03:14:25.923Z,32.74
2023-03-31T03:15:25.957Z,32.71
2023-03-31T03:16:26.044Z,32.73
2023-03-31T03:17:26.092Z,32.74
2023-03-31T03:18:26.112Z,32.71
2023-03-31T03:19:26.173Z,32.71
2023-03-31T03:20:26.245Z,32.70
2023-03-31T03:21:26.279Z,32.72
2023-03-31T03:22:26.313Z,32.71
2023-03-31T03:23:26.378Z,32.72
2023-03-31T03:24:26.426Z,32.73
2023-03-31T03:25:26.475Z,32.73
2023-03-31T03:26:26.506Z,32.72
2023-03-31T03:27:26.554Z,32.71
2023-03-31T03:28:26.607Z,32.71
2023-03-31T03:29:26.653Z,32.72
2023-03-31T03:30:26.696Z,32.71
2023-03-31T03:31:26.823Z,32.71
2023-03-31T03:32:26.798Z,32.73
2023-03-31T03:33:26.851Z,32.71
2023-03-31T03:34:26.903Z,32.70
2023-03-31T03:35:26.949Z,32.68
2023-03-31T03:36:27.080Z,32.70
2023-03-31T03:37:27.063Z,32.70
2023-03-31T03:38:27.108Z,32.70
2023-03-31T03:39:27.192Z,32.69
2023-03-31T03:40:27.222Z,32.69
2023-03-31T03:41:27.266Z,32.69
2023-03-31T03:42:27.311Z,32.69
2023-03-31T03:43:27.371Z,32.68
2023-03-31T03:44:27.420Z,32.67
2023-03-31T03:45:27.478Z,32.69
2023-03-31T03:46:27.585Z,32.66
2023-03-31T03:47:27.625Z,32.68
2023-03-31T03:48:27.628Z,32.67
2023-03-31T03:49:27.682Z,32.68
2023-03-31T03:50:27.726Z,32.67
2023-03-31T03:51:27.776Z,32.66
2023-03-31T03:52:27.839Z,32.67
2023-03-31T03:53:27.870Z,32.67
2023-03-31T03:54:27.921Z,32.65
2023-03-31T03:55:27.999Z,32.65
2023-03-31T03:56:28.027Z,32.64
2023-03-31T03:57:28.125Z,32.64
2023-03-31T03:58:28.125Z,32.63
2023-03-31T03:59:28.181Z,32.64
2023-03-31T04:00:28.220Z,32.63
2023-03-31T04:01:28.271Z,32.63
2023-03-31T04:02:28.353Z,32.63
2023-03-31T04:03:28.497Z,32.62
2023-03-31T04:04:28.429Z,32.61
2023-03-31T04:05:28.526Z,32.62
2023-03-31T04:06:28.540Z,32.64
2023-03-31T04:07:28.594Z,32.62
2023-03-31T04:08:28.642Z,32.60
2023-03-31T04:09:28.727Z,32.60
2023-03-31T04:10:28.752Z,32.62
2023-03-31T04:11:28.840Z,32.61
2023-03-31T04:12:28.869Z,32.61
2023-03-31T04:13:28.925Z,32.60
2023-03-31T04:14:28.995Z,32.61
2023-03-31T04:15:29.039Z,32.58
2023-03-31T04:16:29.385Z,32.61
2023-03-31T04:17:29.218Z,32.60
2023-03-31T04:18:29.202Z,32.61
2023-03-31T04:19:29.282Z,32.59
2023-03-31T04:20:29.316Z,32.58
2023-03-31T04:21:29.368Z,32.56
2023-03-31T04:22:29.521Z,32.58
2023-03-31T04:23:29.483Z,32.57
2023-03-31T04:24:29.541Z,32.58
2023-03-31T04:25:29.585Z,32.55
2023-03-31T04:26:29.642Z,32.56
2023-03-31T04:27:29.712Z,32.54
2023-03-31T04:28:29.756Z,32.52
2023-03-31T04:29:29.803Z,32.55
2023-03-31T04:30:29.855Z,32.53
2023-03-31T04:31:29.931Z,32.54
2023-03-31T04:32:29.977Z,32.53
2023-03-31T04:33:30.008Z,32.54
2023-03-31T04:34:30.062Z,32.53
2023-03-31T04:35:30.149Z,32.54
2023-03-31T04:36:30.175Z,32.53
2023-03-31T04:37:30.231Z,32.54
2023-03-31T04:38:30.832Z,32.56
2023-03-31T04:39:30.330Z,32.54
2023-03-31T04:40:30.409Z,32.55
2023-03-31T04:41:30.448Z,32.52
2023-03-31T04:42:30.498Z,32.53
2023-03-31T04:43:30.579Z,32.53
2023-03-31T04:44:30.605Z,32.52
2023-03-31T04:45:30.722Z,32.52
2023-03-31T04:46:30.743Z,32.53
2023-03-31T04:47:30.832Z,32.51
2023-03-31T04:48:30.806Z,32.56
2023-03-31T04:49:30.872Z,32.52
2023-03-31T04:50:30.916Z,32.51
2023-03-31T04:51:30.972Z,32.51
2023-03-31T04:52:31.033Z,32.52
2023-03-31T04:53:31.068Z,32.50
2023-03-31T04:54:31.118Z,32.52
2023-03-31T04:55:31.178Z,32.50
2023-03-31T04:56:31.233Z,32.50
2023-03-31T04:57:31.308Z,32.49
2023-03-31T04:58:31.337Z,32.48
2023-03-31T04:59:31.420Z,32.50
2023-03-31T05:00:31.438Z,32.47
2023-03-31T05:01:31.570Z,32.47
2023-03-31T05:02:31.635Z,32.47
2023-03-31T05:03:31.744Z,32.49
2023-03-31T05:04:31.662Z,32.49
2023-03-31T05:05:31.710Z,32.49
2023-03-31T05:06:31.770Z,32.49
2023-03-31T05:07:31.837Z,32.47
2023-03-31T05:08:31.896Z,32.47
2023-03-31T05:09:33.012Z,32.45
2023-03-31T05:10:31.933Z,32.46
2023-03-31T05:11:31.928Z,32.46
2023-03-31T05:12:31.933Z,32.45
2023-03-31T05:13:31.929Z,32.45
2023-03-31T05:14:31.910Z,32.43
2023-03-31T05:15:33.423Z,32.44
2023-03-31T05:16:31.959Z,32.42
2023-03-31T05:17:32.393Z,32.43
2023-03-31T05:18:31.892Z,32.44
2023-03-31T05:19:31.901Z,32.45
2023-03-31T05:20:31.874Z,32.57
2023-03-31T05:21:31.881Z,32.58
2023-03-31T05:22:32.388Z,32.62
2023-03-31T05:23:31.840Z,32.63
2023-03-31T05:24:31.843Z,32.69
2023-03-31T05:25:31.859Z,32.76
2023-03-31T05:26:31.842Z,32.77
2023-03-31T05:27:31.830Z,32.84
2023-03-31T05:28:32.573Z,32.89
2023-03-31T05:29:31.799Z,32.97
2023-03-31T05:30:31.816Z,32.98
2023-03-31T05:31:31.840Z,32.99
2023-03-31T05:32:31.883Z,32.96
2023-03-31T05:33:31.890Z,32.98
2023-03-31T05:34:31.784Z,33.01
2023-03-31T05:35:31.785Z,33.12
2023-03-31T05:36:31.869Z,33.10
2023-03-31T05:37:31.794Z,33.14
2023-03-31T05:38:31.903Z,33.14
2023-03-31T05:39:31.830Z,33.21
2023-03-31T05:40:31.869Z,33.26
2023-03-31T05:41:32.362Z,33.27
2023-03-31T05:42:31.963Z,33.39
2023-03-31T05:43:31.962Z,33.42
2023-03-31T05:44:32.394Z,33.58
2023-03-31T05:45:32.023Z,33.57
2023-03-31T05:46:32.093Z,33.52
2023-03-31T05:47:32.130Z,33.45
2023-03-31T05:48:32.823Z,33.47
2023-03-31T05:49:32.391Z,33.44
2023-03-31T05:50:32.132Z,33.46
2023-03-31T05:51:32.160Z,33.53
2023-03-31T05:52:32.182Z,33.48
2023-03-31T05:53:32.386Z,33.38
2023-03-31T05:54:32.404Z,33.40
2023-03-31T05:55:33.719Z,33.31
2023-03-31T05:56:33.114Z,33.27
2023-03-31T05:57:32.393Z,33.26
2023-03-31T05:58:32.420Z,33.22
2023-03-31T05:59:32.459Z,33.28
2023-03-31T06:00:39.773Z,33.26
2023-03-31T06:01:32.741Z,33.25
2023-03-31T06:02:32.481Z,33.24
2023-03-31T06:03:32.791Z,33.25
2023-03-31T06:04:32.393Z,33.24
2023-03-31T06:05:32.381Z,33.27
2023-03-31T06:06:32.347Z,33.24
2023-03-31T06:07:32.338Z,33.22
2023-03-31T06:08:32.365Z,33.23
2023-03-31T06:09:32.322Z,33.22
2023-03-31T06:10:33.333Z,33.20
2023-03-31T06:11:32.323Z,33.20
2023-03-31T06:12:32.323Z,33.19
2023-03-31T06:13:32.371Z,33.19
2023-03-31T06:14:32.290Z,33.19
2023-03-31T06:15:32.287Z,33.17
2023-03-31T06:16:32.279Z,33.16
2023-03-31T06:17:32.910Z,33.16
2023-03-31T06:18:32.376Z,33.17
2023-03-31T06:19:32.318Z,33.16
2023-03-31T06:20:32.413Z,33.17
2023-03-31T06:21:32.246Z,33.18
2023-03-31T06:22:35.482Z,33.15
2023-03-31T06:23:32.369Z,33.14
2023-03-31T06:24:32.297Z,33.14
2023-03-31T06:25:43.506Z,33.10
2023-03-31T06:26:32.506Z,33.13
2023-03-31T06:27:32.260Z,33.11
2023-03-31T06:28:32.387Z,33.11
2023-03-31T06:29:32.248Z,33.09
2023-03-31T06:30:32.251Z,33.06
2023-03-31T06:31:32.303Z,33.07
2023-03-31T06:32:32.227Z,33.06
2023-03-31T06:33:32.376Z,33.06
2023-03-31T06:34:32.208Z,33.04
2023-03-31T06:35:32.243Z,33.04
2023-03-31T06:36:32.186Z,33.01
2023-03-31T06:37:32.185Z,32.99
2023-03-31T06:38:32.389Z,33.01
2023-03-31T06:39:32.166Z,33.01
2023-03-31T06:40:32.649Z,33.00
2023-03-31T06:41:32.165Z,33.00
2023-03-31T06:42:32.153Z,32.97
2023-03-31T06:43:32.139Z,32.97
2023-03-31T06:44:32.129Z,32.96
2023-03-31T06:45:32.149Z,32.93
2023-03-31T06:46:32.158Z,32.95
2023-03-31T06:47:32.157Z,32.95
2023-03-31T06:48:32.381Z,32.96
2023-03-31T06:49:32.118Z,32.94
2023-03-31T06:50:32.107Z,32.94
2023-03-31T06:51:35.330Z,32.94
2023-03-31T06:52:32.083Z,32.92
2023-03-31T06:53:32.385Z,32.92
2023-03-31T06:54:32.070Z,32.94
2023-03-31T06:55:32.061Z,32.93
2023-03-31T06:56:32.100Z,32.93
2023-03-31T06:57:32.120Z,32.93
2023-03-31T06:58:32.387Z,32.94
2023-03-31T06:59:32.396Z,32.93
2023-03-31T07:00:32.034Z,32.93
2023-03-31T07:01:32.038Z,32.91
2023-03-31T07:02:32.112Z,32.92
2023-03-31T07:03:32.049Z,32.92
2023-03-31T07:04:32.415Z,32.93
2023-03-31T07:05:32.021Z,32.95
2023-03-31T07:06:31.999Z,32.91
2023-03-31T07:07:32.411Z,32.90
2023-03-31T07:08:32.384Z,32.90
2023-03-31T07:09:31.965Z,32.89
2023-03-31T07:10:31.957Z,32.90
2023-03-31T07:11:31.953Z,32.88
2023-03-31T07:12:31.951Z,32.89
2023-03-31T07:13:32.390Z,32.89
2023-03-31T07:14:31.938Z,32.88
2023-03-31T07:15:31.936Z,32.87
2023-03-31T07:16:31.949Z,32.87
2023-03-31T07:17:32.948Z,32.88
2023-03-31T07:18:34.822Z,32.90
2023-03-31T07:19:31.908Z,32.88
2023-03-31T07:20:31.910Z,32.88
2023-03-31T07:21:31.890Z,32.87
2023-03-31T07:22:31.881Z,32.88
2023-03-31T07:23:31.920Z,32.85
2023-03-31T07:24:31.864Z,32.88
2023-03-31T07:25:31.856Z,32.88
2023-03-31T07:26:31.852Z,32.87
2023-03-31T07:27:31.929Z,32.88
2023-03-31T07:28:31.912Z,32.92
2023-03-31T07:29:32.008Z,32.85
2023-03-31T07:30:31.844Z,32.88
2023-03-31T07:31:31.834Z,32.87
2023-03-31T07:32:31.858Z,32.87
2023-03-31T07:33:31.913Z,32.89
2023-03-31T07:34:31.803Z,32.86
2023-03-31T07:35:31.849Z,32.88
2023-03-31T07:36:31.806Z,32.85
2023-03-31T07:37:31.781Z,32.84
2023-03-31T07:38:31.913Z,32.85
2023-03-31T07:39:31.929Z,32.86
2023-03-31T07:40:31.902Z,32.84
2023-03-31T07:41:31.745Z,32.83
2023-03-31T07:42:31.775Z,32.83
2023-03-31T07:43:31.818Z,32.84
2023-03-31T07:44:31.931Z,32.81
2023-03-31T07:45:31.904Z,32.81
2023-03-31T07:46:31.943Z,32.81
2023-03-31T07:47:31.998Z,32.79
2023-03-31T07:48:32.004Z,32.80
2023-03-31T07:49:32.402Z,32.81
2023-03-31T07:50:32.085Z,32.80
2023-03-31T07:51:32.121Z,32.80
2023-03-31T07:52:32.160Z,32.81
2023-03-31T07:53:32.345Z,32.93
2023-03-31T07:54:32.405Z,33.07
2023-03-31T07:55:32.430Z,33.52
2023-03-31T07:56:32.318Z,33.62
2023-03-31T07:57:32.383Z,33.74
2023-03-31T07:58:32.404Z,34.04
2023-03-31T07:59:32.351Z,34.15
2023-03-31T08:00:32.347Z,34.28
2023-03-31T08:01:32.357Z,34.44
2023-03-31T08:02:32.448Z,34.59
2023-03-31T08:03:32.491Z,34.65
2023-03-31T08:04:32.511Z,34.82
2023-03-31T08:05:32.355Z,35.06
2023-03-31T08:06:32.351Z,35.24
2023-03-31T08:07:32.374Z,35.31
2023-03-31T08:08:33.418Z,35.34
2023-03-31T08:09:32.928Z,35.49
2023-03-31T08:10:32.473Z,35.52
2023-03-31T08:11:32.943Z,35.58
2023-03-31T08:12:32.920Z,35.51
2023-03-31T08:13:32.511Z,35.58
2023-03-31T08:14:40.778Z,35.60
2023-03-31T08:15:32.511Z,35.60
2023-03-31T08:16:32.546Z,35.64
2023-03-31T08:17:32.571Z,35.74
2023-03-31T08:18:32.483Z,35.68
2023-03-31T08:19:32.481Z,35.50
2023-03-31T08:20:32.473Z,35.25
2023-03-31T08:21:32.928Z,35.16
2023-03-31T08:22:32.457Z,35.25
2023-03-31T08:23:32.484Z,35.47
2023-03-31T08:24:32.452Z,35.36
2023-03-31T08:25:32.436Z,35.36
2023-03-31T08:26:32.948Z,35.53
2023-03-31T08:27:32.449Z,35.41
2023-03-31T08:28:32.501Z,35.46
2023-03-31T08:29:32.407Z,35.38
2023-03-31T08:30:32.410Z,35.20
2023-03-31T08:31:32.441Z,35.19
2023-03-31T08:32:32.479Z,34.83
2023-03-31T08:33:32.398Z,34.91
2023-03-31T08:34:32.377Z,35.07
2023-03-31T08:35:32.410Z,35.05
2023-03-31T08:36:32.364Z,35.22
2023-03-31T08:37:32.445Z,35.39
2023-03-31T08:38:32.847Z,35.65
2023-03-31T08:39:32.337Z,35.68
2023-03-31T08:40:32.337Z,35.50
2023-03-31T08:41:32.355Z,35.43
2023-03-31T08:42:32.425Z,35.33
2023-03-31T08:43:32.333Z,35.26
2023-03-31T08:44:32.311Z,35.24
2023-03-31T08:45:32.458Z,35.18
2023-03-31T08:46:32.369Z,35.08
2023-03-31T08:47:32.431Z,35.02
2023-03-31T08:48:32.271Z,35.00
2023-03-31T08:49:32.302Z,34.87
2023-03-31T08:50:32.262Z,34.76
2023-03-31T08:51:32.258Z,34.75
2023-03-31T08:52:32.424Z,34.71
2023-03-31T08:53:32.833Z,34.67
2023-03-31T08:54:32.238Z,34.60
2023-03-31T08:55:32.346Z,34.63
2023-03-31T08:56:32.214Z,34.59
2023-03-31T08:57:32.453Z,34.58
2023-03-31T08:58:32.199Z,34.57
2023-03-31T08:59:32.500Z,34.53
2023-03-31T09:00:33.210Z,34.47
2023-03-31T09:01:35.892Z,34.47
2023-03-31T09:02:32.556Z,34.45
2023-03-31T09:03:32.396Z,34.37
2023-03-31T09:04:32.211Z,34.40
2023-03-31T09:05:32.206Z,34.27
2023-03-31T09:06:32.434Z,34.21
2023-03-31T09:07:32.176Z,34.19
2023-03-31T09:08:32.168Z,34.20
2023-03-31T09:09:32.480Z,34.20
2023-03-31T09:10:32.155Z,34.20
2023-03-31T09:11:32.145Z,34.15
2023-03-31T09:12:32.148Z,34.19
2023-03-31T09:13:32.431Z,34.22
2023-03-31T09:14:32.356Z,34.23
2023-03-31T09:15:32.185Z,34.28
2023-03-31T09:16:32.191Z,34.31
2023-03-31T09:17:32.107Z,34.34
2023-03-31T09:18:32.432Z,34.36
2023-03-31T09:19:32.128Z,34.39
2023-03-31T09:20:32.064Z,34.42
2023-03-31T09:21:32.088Z,34.43
2023-03-31T09:22:32.578Z,34.41
2023-03-31T09:23:32.085Z,34.48
2023-03-31T09:24:32.913Z,34.52
2023-03-31T09:25:32.048Z,34.54
2023-03-31T09:26:32.464Z,34.58
2023-03-31T09:27:32.026Z,34.68
2023-03-31T09:28:32.047Z,34.77
2023-03-31T09:29:32.442Z,34.75
2023-03-31T09:30:32.011Z,34.87
2023-03-31T09:31:32.093Z,34.82
2023-03-31T09:32:32.191Z,34.82
2023-03-31T09:33:32.140Z,34.77
2023-03-31T09:34:32.448Z,34.83
2023-03-31T09:35:32.012Z,34.91
2023-03-31T09:36:32.012Z,34.87
2023-03-31T09:37:32.450Z,34.84
2023-03-31T09:38:31.959Z,34.88
2023-03-31T09:39:31.987Z,34.85
2023-03-31T09:40:31.966Z,34.84
2023-03-31T09:41:33.790Z,34.89
2023-03-31T09:42:32.974Z,34.89
2023-03-31T09:43:31.950Z,34.90
2023-03-31T09:44:31.906Z,34.81
2023-03-31T09:45:31.904Z,34.80
2023-03-31T09:46:31.959Z,34.88
2023-03-31T09:47:32.030Z,34.96
2023-03-31T09:48:31.894Z,34.99
2023-03-31T09:49:31.980Z,35.09
2023-03-31T09:50:31.984Z,35.09
2023-03-31T09:51:31.852Z,35.22
2023-03-31T09:52:31.865Z,35.34
2023-03-31T09:53:31.848Z,35.42
2023-03-31T09:54:31.951Z,35.43
2023-03-31T09:55:39.748Z,35.47
2023-03-31T09:56:31.822Z,35.45
2023-03-31T09:57:33.844Z,35.47
2023-03-31T09:58:31.823Z,35.44
2023-03-31T09:59:31.852Z,35.45
2023-03-31T10:00:31.807Z,35.46
2023-03-31T10:01:31.862Z,35.49
2023-03-31T10:02:31.819Z,35.52
2023-03-31T10:03:31.823Z,35.59
2023-03-31T10:04:31.853Z,35.67
2023-03-31T10:05:31.960Z,35.65
2023-03-31T10:06:31.770Z,35.68
2023-03-31T10:07:31.788Z,35.65
2023-03-31T10:08:31.775Z,35.67
2023-03-31T10:09:31.741Z,35.63
2023-03-31T10:10:31.959Z,35.69
2023-03-31T10:11:31.729Z,35.72
2023-03-31T10:12:31.721Z,35.80
2023-03-31T10:13:31.729Z,35.77
2023-03-31T10:14:32.010Z,35.80
2023-03-31T10:15:31.732Z,35.75
2023-03-31T10:16:32.008Z,35.53
2023-03-31T10:17:38.015Z,35.83
2023-03-31T10:18:31.737Z,35.77
2023-03-31T10:19:31.706Z,35.73
2023-03-31T10:20:31.964Z,35.92
2023-03-31T10:21:31.664Z,36.01
2023-03-31T10:22:31.657Z,36.40
2023-03-31T10:23:31.656Z,36.25
2023-03-31T10:24:31.653Z,36.39
2023-03-31T10:25:31.963Z,36.35
2023-03-31T10:26:31.968Z,36.93
2023-03-31T10:27:31.622Z,37.19
2023-03-31T10:28:32.603Z,37.68
2023-03-31T10:29:31.605Z,38.13
2023-03-31T10:30:32.001Z,38.58
2023-03-31T10:31:31.610Z,38.75
2023-03-31T10:32:31.682Z,38.94
2023-03-31T10:33:31.576Z,38.83
2023-03-31T10:34:31.588Z,39.43
2023-03-31T10:35:32.053Z,39.50
2023-03-31T10:36:31.546Z,39.24
2023-03-31T10:37:31.552Z,39.09
2023-03-31T10:38:31.535Z,38.93
2023-03-31T10:39:31.966Z,38.73
2023-03-31T10:40:31.574Z,38.58
2023-03-31T10:41:31.555Z,38.47
2023-03-31T10:42:31.602Z,38.62
2023-03-31T10:43:31.645Z,38.76
2023-03-31T10:44:31.645Z,38.68
2023-03-31T10:45:37.723Z,38.24
2023-03-31T10:46:31.678Z,38.33
2023-03-31T10:47:31.681Z,38.24
2023-03-31T10:48:31.643Z,38.18
2023-03-31T10:49:31.707Z,38.15
2023-03-31T10:50:31.977Z,38.23
2023-03-31T10:51:31.646Z,38.16
2023-03-31T10:52:31.611Z,38.21
2023-03-31T10:53:31.615Z,38.29
2023-03-31T10:54:31.611Z,38.25
2023-03-31T10:55:31.969Z,38.16
2023-03-31T10:56:31.592Z,38.16
2023-03-31T10:57:31.591Z,38.04
2023-03-31T10:58:31.583Z,37.91
2023-03-31T10:59:31.578Z,37.98
2023-03-31T11:00:31.968Z,37.79
2023-03-31T11:01:31.578Z,37.74
2023-03-31T11:02:31.706Z,37.67
2023-03-31T11:03:31.596Z,37.73
2023-03-31T11:04:31.531Z,37.78
2023-03-31T11:05:32.018Z,37.85
2023-03-31T11:06:31.968Z,37.91
2023-03-31T11:07:31.541Z,38.02
2023-03-31T11:08:31.509Z,38.03
2023-03-31T11:09:31.498Z,38.23
2023-03-31T11:10:31.493Z,38.39
2023-03-31T11:11:32.016Z,38.54
2023-03-31T11:12:31.509Z,38.72
2023-03-31T11:13:31.508Z,38.83
2023-03-31T11:14:31.486Z,38.88
2023-03-31T11:15:31.518Z,38.82
2023-03-31T11:16:31.535Z,38.72
2023-03-31T11:17:31.899Z,38.77
2023-03-31T11:18:31.448Z,38.69
2023-03-31T11:19:31.428Z,38.79
2023-03-31T11:20:31.422Z,38.78
2023-03-31T11:21:31.469Z,38.88
2023-03-31T11:22:31.424Z,39.17
2023-03-31T11:23:31.428Z,39.16
2023-03-31T11:24:31.394Z,39.10
2023-03-31T11:25:31.386Z,39.13
2023-03-31T11:26:31.472Z,39.05
2023-03-31T11:27:31.403Z,39.03
2023-03-31T11:28:31.379Z,38.99
2023-03-31T11:29:31.433Z,38.95
2023-03-31T11:30:31.976Z,38.85
2023-03-31T11:31:31.571Z,38.88
2023-03-31T11:32:31.841Z,38.81
2023-03-31T11:33:31.978Z,38.91
2023-03-31T11:34:31.703Z,39.20
2023-03-31T11:35:31.765Z,39.38
2023-03-31T11:36:31.797Z,39.48
2023-03-31T11:37:31.922Z,39.52
2023-03-31T11:38:31.895Z,39.59
2023-03-31T11:39:31.981Z,39.61
2023-03-31T11:40:32.022Z,39.70
2023-03-31T11:41:32.089Z,39.75
2023-03-31T11:42:32.135Z,39.71
2023-03-31T11:43:32.200Z,39.64
2023-03-31T11:44:32.257Z,39.49
2023-03-31T11:45:32.328Z,39.41
2023-03-31T11:46:32.531Z,39.35
2023-03-31T11:47:32.461Z,39.35
2023-03-31T11:48:32.498Z,39.29
2023-03-31T11:49:32.549Z,39.29
2023-03-31T11:50:32.616Z,39.25
2023-03-31T11:51:32.683Z,39.28
2023-03-31T11:52:32.749Z,39.26
2023-03-31T11:53:32.804Z,39.23
2023-03-31T11:54:32.858Z,39.24
2023-03-31T11:55:32.974Z,39.20
2023-03-31T11:56:33.025Z,39.22
2023-03-31T11:57:33.187Z,39.15
2023-03-31T11:58:33.115Z,39.17
2023-03-31T11:59:33.189Z,39.13
2023-03-31T12:00:33.216Z,39.06
2023-03-31T12:01:33.268Z,39.00
2023-03-31T12:02:33.340Z,38.90
2023-03-31T12:03:33.431Z,38.75
2023-03-31T12:04:33.426Z,38.80
2023-03-31T12:05:33.517Z,38.63
2023-03-31T12:06:33.985Z,38.61
2023-03-31T12:07:33.622Z,38.79
2023-03-31T12:08:33.686Z,38.69
2023-03-31T12:09:33.738Z,38.96
2023-03-31T12:10:33.799Z,38.89
2023-03-31T12:11:34.026Z,38.12
2023-03-31T12:12:33.854Z,38.18
2023-03-31T12:13:33.928Z,38.49
2023-03-31T12:14:33.925Z,38.38
2023-03-31T12:15:33.994Z,38.63
2023-03-31T12:16:34.046Z,38.55
2023-03-31T12:17:34.552Z,38.71
2023-03-31T12:18:34.080Z,38.92
2023-03-31T12:19:34.082Z,39.80
2023-03-31T12:20:34.109Z,39.87
2023-03-31T12:21:34.135Z,40.26
2023-03-31T12:22:34.154Z,40.49
2023-03-31T12:23:34.149Z,40.86
2023-03-31T12:24:34.161Z,40.92
2023-03-31T12:25:34.186Z,40.75
2023-03-31T12:26:34.226Z,41.10
2023-03-31T12:27:34.531Z,40.93
2023-03-31T12:28:34.273Z,40.88
2023-03-31T12:29:34.334Z,40.76
2023-03-31T12:30:34.372Z,40.62
2023-03-31T12:31:34.417Z,40.51
2023-03-31T12:32:34.513Z,40.37
2023-03-31T12:33:34.409Z,40.26
2023-03-31T12:34:34.417Z,40.14
2023-03-31T12:35:34.516Z,40.10
2023-03-31T12:36:34.430Z,39.96
2023-03-31T12:37:34.497Z,39.92
2023-03-31T12:38:34.618Z,39.82
2023-03-31T12:39:34.592Z,39.72
2023-03-31T12:40:34.794Z,39.71
2023-03-31T12:41:35.006Z,39.62
2023-03-31T12:42:34.735Z,39.55
2023-03-31T12:43:34.803Z,39.52
2023-03-31T12:44:34.813Z,39.43
2023-03-31T12:45:34.862Z,39.47
2023-03-31T12:46:38.259Z,39.51
2023-03-31T12:47:34.922Z,39.52
2023-03-31T12:48:34.864Z,39.56
2023-03-31T12:49:34.858Z,39.83
2023-03-31T12:50:34.855Z,39.70
2023-03-31T12:51:34.851Z,39.80
2023-03-31T12:52:35.016Z,39.85